sensor_id;sensor_type;location;lat;lon;timestamp;temperature;humidity
7044;DHT22;57890;52.36301240;9.76001620;2022-08-21T00:00:09;20.90;82.00
7044;DHT22;57890;52.36301240;9.76001620;2022-08-21T00:02:46;20.90;82.10
7044;DHT22;57890;52.36301240;9.76001620;2022-08-21T00:05:13;20.90;82.20
7044;DHT22;57890;52.36301240;9.76001620;2022-08-21T00:07:40;20.90;82.30
7044;DHT22;57890;52.36301240;9.76001620;2022-08-21T00:10:08;20.90;82.50
7044;DHT22;57890;52.36301240;9.76001620;2022-08-21T00:12:35;20.90;82.60
7044;DHT22;57890;52.36301240;9.76001620;2022-08-21T00:15:02;20.90;82.60
7044;DHT22;57890;52.36301240;9.76001620;2022-08-21T00:17:29;20.90;82.70
7044;DHT22;57890;52.36301240;9.76001620;2022-08-21T00:19:58;20.80;83.40
7044;DHT22;57890;52.36301240;9.76001620;2022-08-21T00:22:25;20.80;82.80
7044;DHT22;57890;52.36301240;9.76001620;2022-08-21T00:24:52;20.80;82.90
7044;DHT22;57890;52.36301240;9.76001620;2022-08-21T00:27:18;20.80;83.00
7044;DHT22;57890;52.36301240;9.76001620;2022-08-21T00:29:45;20.70;83.00
7044;DHT22;57890;52.36301240;9.76001620;2022-08-21T00:32:12;20.70;83.00
7044;DHT22;57890;52.36301240;9.76001620;2022-08-21T00:34:39;20.70;83.20
7044;DHT22;57890;52.36301240;9.76001620;2022-08-21T00:37:07;20.70;83.30
7044;DHT22;57890;52.36301240;9.76001620;2022-08-21T00:39:34;20.70;83.50
7044;DHT22;57890;52.36301240;9.76001620;2022-08-21T00:42:01;20.70;83.60
7044;DHT22;57890;52.36301240;9.76001620;2022-08-21T00:44:28;20.70;83.60
7044;DHT22;57890;52.36301240;9.76001620;2022-08-21T00:46:56;20.70;83.60
7044;DHT22;57890;52.36301240;9.76001620;2022-08-21T00:49:23;20.70;83.60
7044;DHT22;57890;52.36301240;9.76001620;2022-08-21T00:51:53;20.60;83.60
7044;DHT22;57890;52.36301240;9.76001620;2022-08-21T00:54:24;20.60;83.60
7044;DHT22;57890;52.36301240;9.76001620;2022-08-21T00:56:56;20.50;83.70
7044;DHT22;57890;52.36301240;9.76001620;2022-08-21T00:59:23;20.50;84.00
7044;DHT22;57890;52.36301240;9.76001620;2022-08-21T01:01:52;20.50;84.00
7044;DHT22;57890;52.36301240;9.76001620;2022-08-21T01:04:20;20.40;84.00
7044;DHT22;57890;52.36301240;9.76001620;2022-08-21T01:06:47;20.40;84.00
7044;DHT22;57890;52.36301240;9.76001620;2022-08-21T01:09:14;20.40;84.20
7044;DHT22;57890;52.36301240;9.76001620;2022-08-21T01:11:42;20.30;84.20
7044;DHT22;57890;52.36301240;9.76001620;2022-08-21T01:14:09;20.30;84.30
7044;DHT22;57890;52.36301240;9.76001620;2022-08-21T01:16:38;20.30;84.40
7044;DHT22;57890;52.36301240;9.76001620;2022-08-21T01:19:07;20.30;84.50
7044;DHT22;57890;52.36301240;9.76001620;2022-08-21T01:21:36;20.20;84.40
7044;DHT22;57890;52.36301240;9.76001620;2022-08-21T01:24:03;20.20;84.60
7044;DHT22;57890;52.36301240;9.76001620;2022-08-21T01:26:34;20.20;84.70
7044;DHT22;57890;52.36301240;9.76001620;2022-08-21T01:29:06;20.20;84.80
7044;DHT22;57890;52.36301240;9.76001620;2022-08-21T01:31:33;20.20;84.90
7044;DHT22;57890;52.36301240;9.76001620;2022-08-21T01:34:00;20.20;85.10
7044;DHT22;57890;52.36301240;9.76001620;2022-08-21T01:36:28;20.20;85.20
7044;DHT22;57890;52.36301240;9.76001620;2022-08-21T01:38:56;20.20;85.30
7044;DHT22;57890;52.36301240;9.76001620;2022-08-21T01:41:23;20.10;85.50
7044;DHT22;57890;52.36301240;9.76001620;2022-08-21T01:43:50;20.20;85.70
7044;DHT22;57890;52.36301240;9.76001620;2022-08-21T01:46:16;20.10;85.70
7044;DHT22;57890;52.36301240;9.76001620;2022-08-21T01:48:43;20.10;85.80
7044;DHT22;57890;52.36301240;9.76001620;2022-08-21T01:51:11;20.10;86.00
7044;DHT22;57890;52.36301240;9.76001620;2022-08-21T01:53:38;20.10;86.10
7044;DHT22;57890;52.36301240;9.76001620;2022-08-21T01:56:10;20.10;86.10
7044;DHT22;57890;52.36301240;9.76001620;2022-08-21T01:58:38;20.10;86.30
7044;DHT22;57890;52.36301240;9.76001620;2022-08-21T02:01:05;20.00;86.20
7044;DHT22;57890;52.36301240;9.76001620;2022-08-21T02:03:32;20.00;86.50
7044;DHT22;57890;52.36301240;9.76001620;2022-08-21T02:05:59;20.00;86.60
7044;DHT22;57890;52.36301240;9.76001620;2022-08-21T02:08:27;20.00;86.60
7044;DHT22;57890;52.36301240;9.76001620;2022-08-21T02:10:54;20.00;86.70
7044;DHT22;57890;52.36301240;9.76001620;2022-08-21T02:13:22;20.00;86.70
7044;DHT22;57890;52.36301240;9.76001620;2022-08-21T02:15:49;20.00;86.80
7044;DHT22;57890;52.36301240;9.76001620;2022-08-21T02:18:16;20.00;86.80
7044;DHT22;57890;52.36301240;9.76001620;2022-08-21T02:20:46;20.00;86.80
7044;DHT22;57890;52.36301240;9.76001620;2022-08-21T02:23:14;20.00;87.00
7044;DHT22;57890;52.36301240;9.76001620;2022-08-21T02:25:41;20.00;87.00
7044;DHT22;57890;52.36301240;9.76001620;2022-08-21T02:28:11;20.00;87.00
7044;DHT22;57890;52.36301240;9.76001620;2022-08-21T02:30:41;20.00;86.90
7044;DHT22;57890;52.36301240;9.76001620;2022-08-21T02:33:10;20.00;87.00
7044;DHT22;57890;52.36301240;9.76001620;2022-08-21T02:35:38;20.00;87.00
7044;DHT22;57890;52.36301240;9.76001620;2022-08-21T02:38:09;20.00;87.10
7044;DHT22;57890;52.36301240;9.76001620;2022-08-21T02:40:39;20.00;87.10
7044;DHT22;57890;52.36301240;9.76001620;2022-08-21T02:43:07;19.90;87.10
7044;DHT22;57890;52.36301240;9.76001620;2022-08-21T02:45:35;20.00;87.90
7044;DHT22;57890;52.36301240;9.76001620;2022-08-21T02:48:05;20.00;87.10
7044;DHT22;57890;52.36301240;9.76001620;2022-08-21T02:50:36;19.90;87.00
7044;DHT22;57890;52.36301240;9.76001620;2022-08-21T02:53:04;19.90;87.00
7044;DHT22;57890;52.36301240;9.76001620;2022-08-21T02:55:33;19.90;87.00
7044;DHT22;57890;52.36301240;9.76001620;2022-08-21T02:58:01;19.90;87.00
7044;DHT22;57890;52.36301240;9.76001620;2022-08-21T03:00:30;19.80;87.10
7044;DHT22;57890;52.36301240;9.76001620;2022-08-21T03:02:58;19.80;87.10
7044;DHT22;57890;52.36301240;9.76001620;2022-08-21T03:05:29;19.80;87.10
7044;DHT22;57890;52.36301240;9.76001620;2022-08-21T03:07:59;19.80;87.20
7044;DHT22;57890;52.36301240;9.76001620;2022-08-21T03:10:26;19.80;87.20
7044;DHT22;57890;52.36301240;9.76001620;2022-08-21T03:12:53;19.80;87.20
7044;DHT22;57890;52.36301240;9.76001620;2022-08-21T03:15:22;19.80;87.10
7044;DHT22;57890;52.36301240;9.76001620;2022-08-21T03:17:49;19.80;87.20
7044;DHT22;57890;52.36301240;9.76001620;2022-08-21T03:20:21;19.80;87.30
7044;DHT22;57890;52.36301240;9.76001620;2022-08-21T03:22:51;19.80;87.30
7044;DHT22;57890;52.36301240;9.76001620;2022-08-21T03:25:18;19.80;87.20
7044;DHT22;57890;52.36301240;9.76001620;2022-08-21T03:27:46;19.80;87.30
7044;DHT22;57890;52.36301240;9.76001620;2022-08-21T03:30:15;19.80;87.40
7044;DHT22;57890;52.36301240;9.76001620;2022-08-21T03:32:42;19.80;87.40
7044;DHT22;57890;52.36301240;9.76001620;2022-08-21T03:35:10;19.80;87.30
7044;DHT22;57890;52.36301240;9.76001620;2022-08-21T03:37:36;19.70;87.20
7044;DHT22;57890;52.36301240;9.76001620;2022-08-21T03:40:08;19.70;87.20
7044;DHT22;57890;52.36301240;9.76001620;2022-08-21T03:42:35;19.70;87.20
7044;DHT22;57890;52.36301240;9.76001620;2022-08-21T03:45:02;19.70;87.20
7044;DHT22;57890;52.36301240;9.76001620;2022-08-21T03:47:29;19.70;87.20
7044;DHT22;57890;52.36301240;9.76001620;2022-08-21T03:49:56;19.70;87.20
7044;DHT22;57890;52.36301240;9.76001620;2022-08-21T03:52:23;19.70;87.30
7044;DHT22;57890;52.36301240;9.76001620;2022-08-21T03:54:50;19.60;87.10
7044;DHT22;57890;52.36301240;9.76001620;2022-08-21T03:57:18;19.60;87.20
7044;DHT22;57890;52.36301240;9.76001620;2022-08-21T03:59:45;19.60;87.30
7044;DHT22;57890;52.36301240;9.76001620;2022-08-21T04:02:14;19.60;87.30
7044;DHT22;57890;52.36301240;9.76001620;2022-08-21T04:04:43;19.60;87.30
7044;DHT22;57890;52.36301240;9.76001620;2022-08-21T04:07:10;19.60;87.40
7044;DHT22;57890;52.36301240;9.76001620;2022-08-21T04:09:37;19.60;87.40
7044;DHT22;57890;52.36301240;9.76001620;2022-08-21T04:12:04;19.60;87.40
7044;DHT22;57890;52.36301240;9.76001620;2022-08-21T04:14:32;19.60;87.50
7044;DHT22;57890;52.36301240;9.76001620;2022-08-21T04:16:59;19.60;87.50
7044;DHT22;57890;52.36301240;9.76001620;2022-08-21T04:19:26;19.60;87.60
7044;DHT22;57890;52.36301240;9.76001620;2022-08-21T04:21:53;19.60;87.50
7044;DHT22;57890;52.36301240;9.76001620;2022-08-21T04:24:20;19.60;87.70
7044;DHT22;57890;52.36301240;9.76001620;2022-08-21T04:26:47;19.60;87.80
7044;DHT22;57890;52.36301240;9.76001620;2022-08-21T04:29:13;19.60;87.70
7044;DHT22;57890;52.36301240;9.76001620;2022-08-21T04:31:41;19.60;87.80
7044;DHT22;57890;52.36301240;9.76001620;2022-08-21T04:34:09;19.60;88.00
7044;DHT22;57890;52.36301240;9.76001620;2022-08-21T04:36:36;19.60;88.00
7044;DHT22;57890;52.36301240;9.76001620;2022-08-21T04:39:03;19.50;87.90
7044;DHT22;57890;52.36301240;9.76001620;2022-08-21T04:41:30;19.50;87.90
7044;DHT22;57890;52.36301240;9.76001620;2022-08-21T04:43:57;19.50;88.00
7044;DHT22;57890;52.36301240;9.76001620;2022-08-21T04:46:24;19.50;88.00
7044;DHT22;57890;52.36301240;9.76001620;2022-08-21T04:48:52;19.50;88.00
7044;DHT22;57890;52.36301240;9.76001620;2022-08-21T04:51:24;19.50;88.10
7044;DHT22;57890;52.36301240;9.76001620;2022-08-21T04:53:55;19.50;88.20
7044;DHT22;57890;52.36301240;9.76001620;2022-08-21T04:56:27;19.50;88.10
7044;DHT22;57890;52.36301240;9.76001620;2022-08-21T04:59:00;19.50;88.20
7044;DHT22;57890;52.36301240;9.76001620;2022-08-21T05:01:32;19.50;88.20
7044;DHT22;57890;52.36301240;9.76001620;2022-08-21T05:04:03;19.50;88.20
7044;DHT22;57890;52.36301240;9.76001620;2022-08-21T05:06:34;19.40;88.20
7044;DHT22;57890;52.36301240;9.76001620;2022-08-21T05:09:03;19.40;88.20
7044;DHT22;57890;52.36301240;9.76001620;2022-08-21T05:11:30;19.40;88.10
7044;DHT22;57890;52.36301240;9.76001620;2022-08-21T05:13:57;19.40;88.20
7044;DHT22;57890;52.36301240;9.76001620;2022-08-21T05:16:24;19.40;88.20
7044;DHT22;57890;52.36301240;9.76001620;2022-08-21T05:18:52;19.40;88.20
7044;DHT22;57890;52.36301240;9.76001620;2022-08-21T05:21:20;19.40;88.20
7044;DHT22;57890;52.36301240;9.76001620;2022-08-21T05:23:47;19.40;88.20
7044;DHT22;57890;52.36301240;9.76001620;2022-08-21T05:26:14;19.40;88.20
7044;DHT22;57890;52.36301240;9.76001620;2022-08-21T05:28:40;19.50;88.50
7044;DHT22;57890;52.36301240;9.76001620;2022-08-21T05:31:07;19.50;88.50
7044;DHT22;57890;52.36301240;9.76001620;2022-08-21T05:33:34;19.50;88.50
7044;DHT22;57890;52.36301240;9.76001620;2022-08-21T05:36:01;19.50;88.50
7044;DHT22;57890;52.36301240;9.76001620;2022-08-21T05:38:29;19.50;88.50
7044;DHT22;57890;52.36301240;9.76001620;2022-08-21T05:40:56;19.60;88.50
7044;DHT22;57890;52.36301240;9.76001620;2022-08-21T05:43:23;19.50;88.50
7044;DHT22;57890;52.36301240;9.76001620;2022-08-21T05:45:50;19.60;88.60
7044;DHT22;57890;52.36301240;9.76001620;2022-08-21T05:48:18;19.60;88.60
7044;DHT22;57890;52.36301240;9.76001620;2022-08-21T05:50:47;19.60;88.50
7044;DHT22;57890;52.36301240;9.76001620;2022-08-21T05:53:16;19.60;88.60
7044;DHT22;57890;52.36301240;9.76001620;2022-08-21T05:55:46;19.60;88.60
7044;DHT22;57890;52.36301240;9.76001620;2022-08-21T05:58:13;19.60;88.50
7044;DHT22;57890;52.36301240;9.76001620;2022-08-21T06:00:41;19.70;88.70
7044;DHT22;57890;52.36301240;9.76001620;2022-08-21T06:03:11;19.70;88.70
7044;DHT22;57890;52.36301240;9.76001620;2022-08-21T06:05:38;19.70;88.80
7044;DHT22;57890;52.36301240;9.76001620;2022-08-21T06:08:05;19.70;88.70
7044;DHT22;57890;52.36301240;9.76001620;2022-08-21T06:10:32;19.80;88.90
7044;DHT22;57890;52.36301240;9.76001620;2022-08-21T06:13:00;19.80;88.80
7044;DHT22;57890;52.36301240;9.76001620;2022-08-21T06:15:27;19.80;88.90
7044;DHT22;57890;52.36301240;9.76001620;2022-08-21T06:17:54;19.80;88.90
7044;DHT22;57890;52.36301240;9.76001620;2022-08-21T06:20:21;19.90;89.20
7044;DHT22;57890;52.36301240;9.76001620;2022-08-21T06:22:48;19.90;89.20
7044;DHT22;57890;52.36301240;9.76001620;2022-08-21T06:25:15;19.90;89.10
7044;DHT22;57890;52.36301240;9.76001620;2022-08-21T06:27:42;19.90;89.10
7044;DHT22;57890;52.36301240;9.76001620;2022-08-21T06:30:11;19.90;89.20
7044;DHT22;57890;52.36301240;9.76001620;2022-08-21T06:32:38;20.00;89.40
7044;DHT22;57890;52.36301240;9.76001620;2022-08-21T06:35:06;20.00;89.40
7044;DHT22;57890;52.36301240;9.76001620;2022-08-21T06:37:33;20.00;89.40
7044;DHT22;57890;52.36301240;9.76001620;2022-08-21T06:40:00;20.10;89.50
7044;DHT22;57890;52.36301240;9.76001620;2022-08-21T06:42:26;20.10;89.30
7044;DHT22;57890;52.36301240;9.76001620;2022-08-21T06:44:54;20.10;89.20
7044;DHT22;57890;52.36301240;9.76001620;2022-08-21T06:47:24;20.10;89.20
7044;DHT22;57890;52.36301240;9.76001620;2022-08-21T06:49:51;20.20;89.30
7044;DHT22;57890;52.36301240;9.76001620;2022-08-21T06:52:18;20.10;89.00
7044;DHT22;57890;52.36301240;9.76001620;2022-08-21T06:54:45;20.10;89.20
7044;DHT22;57890;52.36301240;9.76001620;2022-08-21T06:57:12;20.10;89.00
7044;DHT22;57890;52.36301240;9.76001620;2022-08-21T06:59:38;20.10;89.10
7044;DHT22;57890;52.36301240;9.76001620;2022-08-21T07:02:05;20.10;89.10
7044;DHT22;57890;52.36301240;9.76001620;2022-08-21T07:04:34;20.20;89.30
7044;DHT22;57890;52.36301240;9.76001620;2022-08-21T07:07:01;20.20;89.50
7044;DHT22;57890;52.36301240;9.76001620;2022-08-21T07:09:28;20.20;89.40
7044;DHT22;57890;52.36301240;9.76001620;2022-08-21T07:11:55;20.20;89.50
7044;DHT22;57890;52.36301240;9.76001620;2022-08-21T07:14:22;20.20;89.50
7044;DHT22;57890;52.36301240;9.76001620;2022-08-21T07:16:50;20.20;89.60
7044;DHT22;57890;52.36301240;9.76001620;2022-08-21T07:19:17;20.30;89.90
7044;DHT22;57890;52.36301240;9.76001620;2022-08-21T07:21:46;20.30;89.90
7044;DHT22;57890;52.36301240;9.76001620;2022-08-21T07:24:13;20.40;90.00
7044;DHT22;57890;52.36301240;9.76001620;2022-08-21T07:26:40;20.50;90.10
7044;DHT22;57890;52.36301240;9.76001620;2022-08-21T07:29:07;20.50;90.00
7044;DHT22;57890;52.36301240;9.76001620;2022-08-21T07:31:34;20.50;89.90
7044;DHT22;57890;52.36301240;9.76001620;2022-08-21T07:34:01;20.60;89.80
7044;DHT22;57890;52.36301240;9.76001620;2022-08-21T07:36:28;20.60;89.60
7044;DHT22;57890;52.36301240;9.76001620;2022-08-21T07:38:56;20.70;89.40
7044;DHT22;57890;52.36301240;9.76001620;2022-08-21T07:41:26;20.70;89.40
7044;DHT22;57890;52.36301240;9.76001620;2022-08-21T07:43:54;20.80;89.40
7044;DHT22;57890;52.36301240;9.76001620;2022-08-21T07:46:23;20.80;89.10
7044;DHT22;57890;52.36301240;9.76001620;2022-08-21T07:48:51;20.90;88.90
7044;DHT22;57890;52.36301240;9.76001620;2022-08-21T07:51:18;21.00;88.60
7044;DHT22;57890;52.36301240;9.76001620;2022-08-21T07:53:48;21.00;88.40
7044;DHT22;57890;52.36301240;9.76001620;2022-08-21T07:56:16;21.10;88.10
7044;DHT22;57890;52.36301240;9.76001620;2022-08-21T07:58:44;21.20;87.80
7044;DHT22;57890;52.36301240;9.76001620;2022-08-21T08:01:11;21.20;87.60
7044;DHT22;57890;52.36301240;9.76001620;2022-08-21T08:03:39;21.30;87.50
7044;DHT22;57890;52.36301240;9.76001620;2022-08-21T08:06:07;21.30;87.50
7044;DHT22;57890;52.36301240;9.76001620;2022-08-21T08:08:37;21.40;87.40
7044;DHT22;57890;52.36301240;9.76001620;2022-08-21T08:11:04;21.40;87.50
7044;DHT22;57890;52.36301240;9.76001620;2022-08-21T08:13:38;21.50;87.50
7044;DHT22;57890;52.36301240;9.76001620;2022-08-21T08:16:06;21.50;87.50
7044;DHT22;57890;52.36301240;9.76001620;2022-08-21T08:18:33;21.60;87.70
7044;DHT22;57890;52.36301240;9.76001620;2022-08-21T08:21:00;21.60;87.50
7044;DHT22;57890;52.36301240;9.76001620;2022-08-21T08:23:27;21.70;87.30
7044;DHT22;57890;52.36301240;9.76001620;2022-08-21T08:25:56;21.70;86.80
7044;DHT22;57890;52.36301240;9.76001620;2022-08-21T08:28:22;21.80;86.50
7044;DHT22;57890;52.36301240;9.76001620;2022-08-21T08:30:51;21.80;86.30
7044;DHT22;57890;52.36301240;9.76001620;2022-08-21T08:33:18;21.90;86.00
7044;DHT22;57890;52.36301240;9.76001620;2022-08-21T08:35:48;21.90;85.80
7044;DHT22;57890;52.36301240;9.76001620;2022-08-21T08:38:15;22.00;85.90
7044;DHT22;57890;52.36301240;9.76001620;2022-08-21T08:40:52;22.00;85.70
7044;DHT22;57890;52.36301240;9.76001620;2022-08-21T08:43:22;22.00;85.30
7044;DHT22;57890;52.36301240;9.76001620;2022-08-21T08:45:51;22.10;84.90
7044;DHT22;57890;52.36301240;9.76001620;2022-08-21T08:48:36;22.10;84.70
7044;DHT22;57890;52.36301240;9.76001620;2022-08-21T08:51:11;22.20;84.50
7044;DHT22;57890;52.36301240;9.76001620;2022-08-21T08:53:47;22.20;84.40
7044;DHT22;57890;52.36301240;9.76001620;2022-08-21T08:56:21;22.20;84.00
7044;DHT22;57890;52.36301240;9.76001620;2022-08-21T08:58:50;22.20;83.80
7044;DHT22;57890;52.36301240;9.76001620;2022-08-21T09:01:20;22.30;84.00
7044;DHT22;57890;52.36301240;9.76001620;2022-08-21T09:03:48;22.30;84.00
7044;DHT22;57890;52.36301240;9.76001620;2022-08-21T09:06:26;22.30;83.90
7044;DHT22;57890;52.36301240;9.76001620;2022-08-21T09:09:02;22.40;83.60
7044;DHT22;57890;52.36301240;9.76001620;2022-08-21T09:11:37;22.40;83.40
7044;DHT22;57890;52.36301240;9.76001620;2022-08-21T09:14:14;22.40;83.20
7044;DHT22;57890;52.36301240;9.76001620;2022-08-21T09:16:49;22.50;83.30
7044;DHT22;57890;52.36301240;9.76001620;2022-08-21T09:19:30;22.50;83.30
7044;DHT22;57890;52.36301240;9.76001620;2022-08-21T09:22:06;22.50;83.30
7044;DHT22;57890;52.36301240;9.76001620;2022-08-21T09:24:52;22.60;83.20
7044;DHT22;57890;52.36301240;9.76001620;2022-08-21T09:27:22;22.60;83.00
7044;DHT22;57890;52.36301240;9.76001620;2022-08-21T09:29:52;22.60;83.10
7044;DHT22;57890;52.36301240;9.76001620;2022-08-21T09:32:22;22.70;83.80
7044;DHT22;57890;52.36301240;9.76001620;2022-08-21T09:34:59;22.70;83.00
7044;DHT22;57890;52.36301240;9.76001620;2022-08-21T09:37:27;22.70;82.70
7044;DHT22;57890;52.36301240;9.76001620;2022-08-21T09:39:56;22.80;82.90
7044;DHT22;57890;52.36301240;9.76001620;2022-08-21T09:42:26;22.80;82.90
7044;DHT22;57890;52.36301240;9.76001620;2022-08-21T09:45:10;22.90;83.20
7044;DHT22;57890;52.36301240;9.76001620;2022-08-21T09:47:39;22.90;83.00
7044;DHT22;57890;52.36301240;9.76001620;2022-08-21T09:50:08;22.90;82.80
7044;DHT22;57890;52.36301240;9.76001620;2022-08-21T09:52:43;22.90;83.10
7044;DHT22;57890;52.36301240;9.76001620;2022-08-21T09:55:16;22.90;83.00
7044;DHT22;57890;52.36301240;9.76001620;2022-08-21T09:57:59;22.90;83.10
7044;DHT22;57890;52.36301240;9.76001620;2022-08-21T10:00:30;22.90;83.70
7044;DHT22;57890;52.36301240;9.76001620;2022-08-21T10:03:15;23.00;84.20
7044;DHT22;57890;52.36301240;9.76001620;2022-08-21T10:05:54;23.00;82.80
7044;DHT22;57890;52.36301240;9.76001620;2022-08-21T10:08:24;23.00;82.50
7044;DHT22;57890;52.36301240;9.76001620;2022-08-21T10:10:55;23.00;83.00
7044;DHT22;57890;52.36301240;9.76001620;2022-08-21T10:13:32;23.00;83.00
7044;DHT22;57890;52.36301240;9.76001620;2022-08-21T10:16:15;23.00;82.50
7044;DHT22;57890;52.36301240;9.76001620;2022-08-21T10:19:03;23.00;82.10
7044;DHT22;57890;52.36301240;9.76001620;2022-08-21T10:21:38;23.10;82.10
7044;DHT22;57890;52.36301240;9.76001620;2022-08-21T10:24:12;23.10;82.10
7044;DHT22;57890;52.36301240;9.76001620;2022-08-21T10:26:48;23.10;81.80
7044;DHT22;57890;52.36301240;9.76001620;2022-08-21T10:29:32;23.10;82.10
7044;DHT22;57890;52.36301240;9.76001620;2022-08-21T10:32:05;23.10;82.00
7044;DHT22;57890;52.36301240;9.76001620;2022-08-21T10:34:44;23.10;81.60
7044;DHT22;57890;52.36301240;9.76001620;2022-08-21T10:37:21;23.10;81.30
7044;DHT22;57890;52.36301240;9.76001620;2022-08-21T10:40:02;23.10;81.40
7044;DHT22;57890;52.36301240;9.76001620;2022-08-21T10:42:37;23.10;81.40
7044;DHT22;57890;52.36301240;9.76001620;2022-08-21T10:45:12;23.10;81.90
7044;DHT22;57890;52.36301240;9.76001620;2022-08-21T10:47:44;23.20;81.60
7044;DHT22;57890;52.36301240;9.76001620;2022-08-21T10:50:22;23.20;81.20
7044;DHT22;57890;52.36301240;9.76001620;2022-08-21T10:53:05;23.10;81.40
7044;DHT22;57890;52.36301240;9.76001620;2022-08-21T10:55:39;23.10;81.20
7044;DHT22;57890;52.36301240;9.76001620;2022-08-21T10:58:10;23.20;80.60
7044;DHT22;57890;52.36301240;9.76001620;2022-08-21T11:00:41;23.20;79.70
7044;DHT22;57890;52.36301240;9.76001620;2022-08-21T11:03:13;23.30;79.50
7044;DHT22;57890;52.36301240;9.76001620;2022-08-21T11:05:47;23.20;79.60
7044;DHT22;57890;52.36301240;9.76001620;2022-08-21T11:08:18;23.30;79.40
7044;DHT22;57890;52.36301240;9.76001620;2022-08-21T11:10:50;23.30;78.80
7044;DHT22;57890;52.36301240;9.76001620;2022-08-21T11:13:24;23.30;78.80
7044;DHT22;57890;52.36301240;9.76001620;2022-08-21T11:15:56;23.30;79.00
7044;DHT22;57890;52.36301240;9.76001620;2022-08-21T11:18:29;23.30;78.80
7044;DHT22;57890;52.36301240;9.76001620;2022-08-21T11:21:04;23.40;78.70
7044;DHT22;57890;52.36301240;9.76001620;2022-08-21T11:23:38;23.40;78.40
7044;DHT22;57890;52.36301240;9.76001620;2022-08-21T11:26:10;23.40;78.20
7044;DHT22;57890;52.36301240;9.76001620;2022-08-21T11:28:46;23.50;77.80
7044;DHT22;57890;52.36301240;9.76001620;2022-08-21T11:31:33;23.50;78.00
7044;DHT22;57890;52.36301240;9.76001620;2022-08-21T11:34:13;23.50;78.80
7044;DHT22;57890;52.36301240;9.76001620;2022-08-21T11:36:48;23.60;78.70
7044;DHT22;57890;52.36301240;9.76001620;2022-08-21T11:39:24;23.60;78.20
7044;DHT22;57890;52.36301240;9.76001620;2022-08-21T11:41:59;23.60;78.90
7044;DHT22;57890;52.36301240;9.76001620;2022-08-21T11:44:34;23.70;79.20
7044;DHT22;57890;52.36301240;9.76001620;2022-08-21T11:47:10;23.80;78.90
7044;DHT22;57890;52.36301240;9.76001620;2022-08-21T11:49:48;23.80;78.00
7044;DHT22;57890;52.36301240;9.76001620;2022-08-21T11:52:20;23.90;78.30
7044;DHT22;57890;52.36301240;9.76001620;2022-08-21T11:54:54;23.90;78.30
7044;DHT22;57890;52.36301240;9.76001620;2022-08-21T11:57:26;24.00;78.30
7044;DHT22;57890;52.36301240;9.76001620;2022-08-21T12:00:06;24.10;77.60
7044;DHT22;57890;52.36301240;9.76001620;2022-08-21T12:02:41;24.10;77.10
7044;DHT22;57890;52.36301240;9.76001620;2022-08-21T12:05:20;24.10;77.90
7044;DHT22;57890;52.36301240;9.76001620;2022-08-21T12:08:00;24.10;78.10
7044;DHT22;57890;52.36301240;9.76001620;2022-08-21T12:10:33;24.10;78.70
7044;DHT22;57890;52.36301240;9.76001620;2022-08-21T12:13:11;24.20;78.60
7044;DHT22;57890;52.36301240;9.76001620;2022-08-21T12:15:48;24.30;76.90
7044;DHT22;57890;52.36301240;9.76001620;2022-08-21T12:18:27;24.30;76.60
7044;DHT22;57890;52.36301240;9.76001620;2022-08-21T12:21:04;24.40;76.00
7044;DHT22;57890;52.36301240;9.76001620;2022-08-21T12:23:35;24.50;76.10
7044;DHT22;57890;52.36301240;9.76001620;2022-08-21T12:26:18;24.70;76.20
7044;DHT22;57890;52.36301240;9.76001620;2022-08-21T12:28:46;24.70;76.20
7044;DHT22;57890;52.36301240;9.76001620;2022-08-21T12:31:22;24.80;76.10
7044;DHT22;57890;52.36301240;9.76001620;2022-08-21T12:33:57;24.90;75.80
7044;DHT22;57890;52.36301240;9.76001620;2022-08-21T12:36:29;24.90;75.70
7044;DHT22;57890;52.36301240;9.76001620;2022-08-21T12:39:03;25.10;75.70
7044;DHT22;57890;52.36301240;9.76001620;2022-08-21T12:41:37;25.20;75.90
7044;DHT22;57890;52.36301240;9.76001620;2022-08-21T12:44:09;25.20;75.60
7044;DHT22;57890;52.36301240;9.76001620;2022-08-21T12:46:50;25.30;75.40
7044;DHT22;57890;52.36301240;9.76001620;2022-08-21T12:49:23;25.40;75.40
7044;DHT22;57890;52.36301240;9.76001620;2022-08-21T12:51:55;25.50;75.00
7044;DHT22;57890;52.36301240;9.76001620;2022-08-21T12:54:26;25.60;75.40
7044;DHT22;57890;52.36301240;9.76001620;2022-08-21T12:56:57;25.70;75.20
7044;DHT22;57890;52.36301240;9.76001620;2022-08-21T12:59:24;25.80;75.20
7044;DHT22;57890;52.36301240;9.76001620;2022-08-21T13:01:52;25.90;75.20
7044;DHT22;57890;52.36301240;9.76001620;2022-08-21T13:04:33;26.00;74.90
7044;DHT22;57890;52.36301240;9.76001620;2022-08-21T13:07:06;26.30;75.50
7044;DHT22;57890;52.36301240;9.76001620;2022-08-21T13:09:43;27.30;76.00
7044;DHT22;57890;52.36301240;9.76001620;2022-08-21T13:12:11;28.90;74.70
7044;DHT22;57890;52.36301240;9.76001620;2022-08-21T13:14:40;29.20;72.60
7044;DHT22;57890;52.36301240;9.76001620;2022-08-21T13:17:09;30.70;71.80
7044;DHT22;57890;52.36301240;9.76001620;2022-08-21T13:19:37;31.70;70.60
7044;DHT22;57890;52.36301240;9.76001620;2022-08-21T13:22:11;32.70;68.80
7044;DHT22;57890;52.36301240;9.76001620;2022-08-21T13:24:40;33.60;67.50
7044;DHT22;57890;52.36301240;9.76001620;2022-08-21T13:27:17;34.50;66.90
7044;DHT22;57890;52.36301240;9.76001620;2022-08-21T13:29:44;35.40;65.10
7044;DHT22;57890;52.36301240;9.76001620;2022-08-21T13:32:20;36.30;64.50
7044;DHT22;57890;52.36301240;9.76001620;2022-08-21T13:34:49;37.10;63.60
7044;DHT22;57890;52.36301240;9.76001620;2022-08-21T13:37:17;37.80;62.80
7044;DHT22;57890;52.36301240;9.76001620;2022-08-21T13:39:50;38.40;61.70
7044;DHT22;57890;52.36301240;9.76001620;2022-08-21T13:42:18;38.30;59.80
7044;DHT22;57890;52.36301240;9.76001620;2022-08-21T13:44:47;39.00;59.60
7044;DHT22;57890;52.36301240;9.76001620;2022-08-21T13:47:16;39.40;58.60
7044;DHT22;57890;52.36301240;9.76001620;2022-08-21T13:49:45;39.80;57.60